createdAt,value
2023-03-20T00:00:36.012Z,7.66
2023-03-20T00:03:21.974Z,7.64
2023-03-20T00:06:37.122Z,7.61
2023-03-20T00:09:23.309Z,7.62
2023-03-20T00:12:15.880Z,7.58
2023-03-20T00:15:04.444Z,7.59
2023-03-20T00:17:50.356Z,7.54
2023-03-20T00:20:36.152Z,7.53
2023-03-20T00:23:22.826Z,7.53
2023-03-20T00:26:15.787Z,7.54
2023-03-20T00:29:04.159Z,7.51
2023-03-20T00:31:50.005Z,7.51
2023-03-20T00:34:36.489Z,7.49
2023-03-20T00:37:22.358Z,7.42
2023-03-20T00:40:09.586Z,7.37
2023-03-20T00:42:59.789Z,7.35
2023-03-20T00:45:45.823Z,7.29
2023-03-20T00:48:32.534Z,7.23
2023-03-20T00:51:19.359Z,7.18
2023-03-20T00:54:16.842Z,7.15
2023-03-20T00:57:35.585Z,7.11
2023-03-20T01:00:30.744Z,7.02
2023-03-20T01:03:25.765Z,6.94
2023-03-20T01:06:12.971Z,6.88
2023-03-20T01:08:58.728Z,6.80
2023-03-20T01:11:45.127Z,6.75
2023-03-20T01:14:31.260Z,6.71
2023-03-20T01:17:19.957Z,6.70
2023-03-20T01:20:14.329Z,6.69
2023-03-20T01:23:00.417Z,6.69
2023-03-20T01:25:46.257Z,6.65
2023-03-20T01:28:32.472Z,6.63
2023-03-20T01:31:19.066Z,6.63
2023-03-20T01:34:06.362Z,6.58
2023-03-20T01:36:54.384Z,6.58
2023-03-20T01:39:40.390Z,6.55
2023-03-20T01:42:26.196Z,6.50
2023-03-20T01:45:21.510Z,6.44
2023-03-20T01:48:17.700Z,6.39
2023-03-20T01:51:03.506Z,6.40
2023-03-20T01:53:53.531Z,6.38
2023-03-20T01:56:43.597Z,6.39
2023-03-20T01:59:30.268Z,6.30
2023-03-20T02:02:20.541Z,6.36
2023-03-20T02:05:09.624Z,6.33
2023-03-20T02:08:26.159Z,6.22
2023-03-20T02:11:13.163Z,6.08
2023-03-20T02:14:00.295Z,6.03
2023-03-20T02:16:51.259Z,5.92
2023-03-20T02:20:17.930Z,5.99
2023-03-20T02:23:09.895Z,5.97
2023-03-20T02:26:37.057Z,6.00
2023-03-20T02:29:42.497Z,6.02
2023-03-20T02:32:41.295Z,6.02
2023-03-20T02:35:52.652Z,6.04
2023-03-20T02:39:00.349Z,6.05
2023-03-20T02:41:46.447Z,6.06
2023-03-20T02:44:51.468Z,6.01
2023-03-20T02:47:44.693Z,6.03
2023-03-20T02:50:38.805Z,5.99
2023-03-20T02:53:41.676Z,6.01
2023-03-20T02:56:46.252Z,5.98
2023-03-20T02:59:37.774Z,5.98
2023-03-20T03:02:37.840Z,5.97
2023-03-20T03:05:37.118Z,5.97
2023-03-20T03:08:26.307Z,5.94
2023-03-20T03:11:12.892Z,5.86
2023-03-20T03:13:59.207Z,5.87
2023-03-20T03:16:46.695Z,5.84
2023-03-20T03:19:34.125Z,5.78
2023-03-20T03:22:21.260Z,5.78
2023-03-20T03:25:07.359Z,5.74
2023-03-20T03:28:18.936Z,5.75
2023-03-20T03:31:13.740Z,5.72
2023-03-20T03:34:00.350Z,5.78
2023-03-20T03:37:00.980Z,5.79
2023-03-20T03:39:54.130Z,5.77
2023-03-20T03:43:04.590Z,5.74
2023-03-20T03:45:55.113Z,5.68
2023-03-20T03:48:45.509Z,5.69
2023-03-20T03:51:34.583Z,5.69
2023-03-20T03:54:42.202Z,5.64
2023-03-20T03:57:58.178Z,5.53
2023-03-20T04:00:46.341Z,5.56
2023-03-20T04:03:35.907Z,5.57
2023-03-20T04:06:22.105Z,5.55
2023-03-20T04:09:09.675Z,5.59
2023-03-20T04:11:55.398Z,5.57
2023-03-20T04:14:41.245Z,5.63
2023-03-20T04:17:27.276Z,5.60
2023-03-20T04:20:13.713Z,5.61
2023-03-20T04:22:59.674Z,5.56
2023-03-20T04:25:45.631Z,5.57
2023-03-20T04:28:34.376Z,5.50
2023-03-20T04:31:43.671Z,5.50
2023-03-20T04:34:37.940Z,5.44
2023-03-20T04:37:33.160Z,5.47
2023-03-20T04:40:27.256Z,5.45
2023-03-20T04:43:14.629Z,5.41
2023-03-20T04:46:00.860Z,5.43
2023-03-20T04:48:46.934Z,5.42
2023-03-20T04:51:33.753Z,5.41
2023-03-20T04:54:19.876Z,5.38
2023-03-20T04:57:06.268Z,5.39
2023-03-20T04:59:53.112Z,5.44
2023-03-20T05:02:38.989Z,5.46
2023-03-20T05:05:26.284Z,5.44
2023-03-20T05:08:13.412Z,5.42
2023-03-20T05:10:59.813Z,5.40
2023-03-20T05:14:24.304Z,5.38
2023-03-20T05:17:41.274Z,5.42
2023-03-20T05:20:50.900Z,5.38
2023-03-20T05:24:09.194Z,5.41
2023-03-20T05:27:15.035Z,5.41
2023-03-20T05:30:19.834Z,5.42
2023-03-20T05:33:05.701Z,5.41
2023-03-20T05:36:12.208Z,5.44
2023-03-20T05:39:27.641Z,5.46
2023-03-20T05:42:27.741Z,5.47
2023-03-20T05:45:37.164Z,5.53
2023-03-20T05:48:47.611Z,5.60
2023-03-20T05:52:06.545Z,5.60
2023-03-20T05:55:20.798Z,5.67
2023-03-20T05:58:26.359Z,5.71
2023-03-20T06:01:28.076Z,5.71
2023-03-20T06:04:26.062Z,5.78
2023-03-20T06:07:30.361Z,5.83
2023-03-20T06:10:21.711Z,5.84
2023-03-20T06:13:09.444Z,5.91
2023-03-20T06:15:56.382Z,5.91
2023-03-20T06:18:42.760Z,5.95
2023-03-20T06:21:28.664Z,6.02
2023-03-20T06:24:14.619Z,6.07
2023-03-20T06:27:00.794Z,6.11
2023-03-20T06:29:47.650Z,6.19
2023-03-20T06:32:37.384Z,6.26
2023-03-20T06:35:30.740Z,6.34
2023-03-20T06:38:16.821Z,6.43
2023-03-20T06:41:03.051Z,6.49
2023-03-20T06:43:49.663Z,6.63
2023-03-20T06:46:38.686Z,6.73
2023-03-20T06:49:25.444Z,6.84
2023-03-20T06:52:19.921Z,6.93
2023-03-20T06:55:16.328Z,7.03
2023-03-20T06:58:03.897Z,7.11
2023-03-20T07:00:52.283Z,7.23
2023-03-20T07:03:40.178Z,7.31
2023-03-20T07:06:28.122Z,7.32
2023-03-20T07:09:13.996Z,7.46
2023-03-20T07:12:00.146Z,7.49
2023-03-20T07:14:46.635Z,7.60
2023-03-20T07:17:37.501Z,7.62
2023-03-20T07:20:23.287Z,7.71
2023-03-20T07:23:09.391Z,7.71
2023-03-20T07:25:55.575Z,7.76
2023-03-20T07:28:41.500Z,7.81
2023-03-20T07:31:37.195Z,7.87
2023-03-20T07:34:33.163Z,7.91
2023-03-20T07:37:20.015Z,7.95
2023-03-20T07:40:16.977Z,8.01
2023-03-20T07:43:33.553Z,8.15
2023-03-20T07:46:49.265Z,8.23
2023-03-20T07:49:35.582Z,8.34
2023-03-20T07:52:21.664Z,8.44
2023-03-20T07:55:07.811Z,8.47
2023-03-20T07:57:53.921Z,8.62
2023-03-20T08:00:40.692Z,8.73
2023-03-20T08:03:26.814Z,8.85
2023-03-20T08:06:12.414Z,9.01
2023-03-20T08:08:58.735Z,9.11
2023-03-20T08:11:44.621Z,9.28
2023-03-20T08:14:30.684Z,9.41
2023-03-20T08:17:19.376Z,9.55
2023-03-20T08:20:07.303Z,9.69
2023-03-20T08:22:53.299Z,9.89
2023-03-20T08:25:39.318Z,10.08
2023-03-20T08:28:44.040Z,10.21
2023-03-20T08:31:31.684Z,10.45
2023-03-20T08:34:17.901Z,10.61
2023-03-20T08:38:10.214Z,10.87
2023-03-20T08:40:56.230Z,11.10
2023-03-20T08:43:46.314Z,11.35
2023-03-20T08:46:32.746Z,11.50
2023-03-20T08:49:18.554Z,11.77
2023-03-20T08:52:04.482Z,11.96
2023-03-20T08:54:50.294Z,12.12
2023-03-20T08:57:35.962Z,12.30
2023-03-20T09:00:22.577Z,12.49
2023-03-20T09:03:14.851Z,12.66
2023-03-20T09:06:01.128Z,12.81
2023-03-20T09:08:47.131Z,12.95
2023-03-20T09:11:36.122Z,13.15
2023-03-20T09:14:22.699Z,13.28
2023-03-20T09:17:08.434Z,13.44
2023-03-20T09:19:54.252Z,13.53
2023-03-20T09:22:41.449Z,13.64
2023-03-20T09:25:27.575Z,13.72
2023-03-20T09:28:14.053Z,13.85
2023-03-20T09:31:00.210Z,13.94
2023-03-20T09:33:46.524Z,14.05
2023-03-20T09:36:33.125Z,14.11
2023-03-20T09:39:21.415Z,14.28
2023-03-20T09:42:31.449Z,14.35
2023-03-20T09:45:20.239Z,14.59
2023-03-20T09:48:24.532Z,14.71
2023-03-20T09:51:27.143Z,14.79
2023-03-20T09:54:25.226Z,14.89
2023-03-20T09:57:27.094Z,14.97
2023-03-20T10:00:19.525Z,15.02
2023-03-20T10:03:10.301Z,15.11
2023-03-20T10:06:09.703Z,15.24
2023-03-20T10:08:55.560Z,15.33
2023-03-20T10:12:08.428Z,15.39
2023-03-20T10:15:21.897Z,15.55
2023-03-20T10:18:26.000Z,15.76
2023-03-20T10:21:26.828Z,15.94
2023-03-20T10:24:29.993Z,16.10
2023-03-20T10:27:42.308Z,16.24
2023-03-20T10:30:56.333Z,16.30
2023-03-20T10:34:05.147Z,16.35
2023-03-20T10:37:00.487Z,16.44
2023-03-20T10:39:57.874Z,16.50
2023-03-20T10:42:45.886Z,16.55
2023-03-20T10:45:53.801Z,16.63
2023-03-20T10:49:04.184Z,16.77
2023-03-20T10:51:52.944Z,16.89
2023-03-20T10:54:45.741Z,16.98
2023-03-20T10:57:36.483Z,17.16
2023-03-20T11:00:25.043Z,17.27
2023-03-20T11:03:24.888Z,17.46
2023-03-20T11:06:24.267Z,17.71
2023-03-20T11:09:20.435Z,17.96
2023-03-20T11:12:18.389Z,18.22
2023-03-20T11:15:34.839Z,18.44
2023-03-20T11:18:20.832Z,18.67
2023-03-20T11:21:09.028Z,18.81
2023-03-20T11:23:55.202Z,18.97
2023-03-20T11:26:42.913Z,19.09
2023-03-20T11:29:35.284Z,19.22
2023-03-20T11:32:35.985Z,19.33
2023-03-20T11:35:27.876Z,19.49
2023-03-20T11:38:20.322Z,19.66
2023-03-20T11:41:22.255Z,19.85
2023-03-20T11:44:28.146Z,20.18
2023-03-20T11:47:19.519Z,20.60
2023-03-20T11:50:07.343Z,21.11
2023-03-20T11:52:54.159Z,21.58
2023-03-20T11:55:39.810Z,22.04
2023-03-20T11:58:25.643Z,22.60
2023-03-20T12:01:12.650Z,23.10
2023-03-20T12:03:58.089Z,23.59
2023-03-20T12:06:46.984Z,24.00
2023-03-20T12:09:49.772Z,24.26
2023-03-20T12:12:41.030Z,24.39
2023-03-20T12:15:39.002Z,24.37
2023-03-20T12:18:36.950Z,24.37
2023-03-20T12:21:37.683Z,24.39
2023-03-20T12:24:42.408Z,24.47
2023-03-20T12:27:36.093Z,24.61
2023-03-20T12:30:50.074Z,24.79
2023-03-20T12:33:47.806Z,25.16
2023-03-20T12:36:41.413Z,25.56
2023-03-20T12:39:34.427Z,25.95
2023-03-20T12:42:48.197Z,26.33
2023-03-20T12:46:25.266Z,26.74
2023-03-20T12:49:17.195Z,27.13
2023-03-20T12:52:32.845Z,27.27
2023-03-20T12:55:18.695Z,27.41
2023-03-20T12:58:15.564Z,27.50
2023-03-20T13:01:09.380Z,27.50
2023-03-20T13:04:10.000Z,27.53
2023-03-20T13:07:03.832Z,27.57
2023-03-20T13:10:02.139Z,27.65
2023-03-20T13:13:06.372Z,27.72
2023-03-20T13:15:56.652Z,27.78
2023-03-20T13:19:12.767Z,27.84
2023-03-20T13:22:21.914Z,27.78
2023-03-20T13:25:23.065Z,27.64
2023-03-20T13:28:44.271Z,27.44
2023-03-20T13:31:48.604Z,27.11
2023-03-20T13:35:23.538Z,26.81
2023-03-20T13:38:25.359Z,26.44
2023-03-20T13:41:11.267Z,26.16
2023-03-20T13:44:01.326Z,25.93
2023-03-20T13:46:51.176Z,25.65
2023-03-20T13:50:09.788Z,25.35
2023-03-20T13:53:20.002Z,25.08
2023-03-20T13:56:29.608Z,24.83
2023-03-20T13:59:37.511Z,24.63
2023-03-20T14:02:45.035Z,24.49
2023-03-20T14:05:36.468Z,24.52
2023-03-20T14:08:30.838Z,24.78
2023-03-20T14:11:24.316Z,25.12
2023-03-20T14:14:23.959Z,25.39
2023-03-20T14:17:19.169Z,25.55
2023-03-20T14:20:20.861Z,25.53
2023-03-20T14:23:08.084Z,25.44
2023-03-20T14:25:54.838Z,25.45
2023-03-20T14:29:00.102Z,25.34
2023-03-20T14:31:49.641Z,25.22
2023-03-20T14:34:49.289Z,25.08
2023-03-20T14:37:58.496Z,24.93
2023-03-20T14:41:11.932Z,24.85
2023-03-20T14:44:16.603Z,24.80
2023-03-20T14:47:11.131Z,24.68
2023-03-20T14:50:20.711Z,24.47
2023-03-20T14:53:21.196Z,24.17
2023-03-20T14:56:11.122Z,23.82
2023-03-20T14:59:00.264Z,23.51
2023-03-20T15:01:55.844Z,23.21
2023-03-20T15:04:42.795Z,22.91
2023-03-20T15:07:36.398Z,22.67
2023-03-20T15:10:22.155Z,22.48
2023-03-20T15:13:08.528Z,22.18
2023-03-20T15:15:59.969Z,21.94
2023-03-20T15:18:52.872Z,21.71
2023-03-20T15:21:41.480Z,21.47
2023-03-20T15:24:29.687Z,21.28
2023-03-20T15:27:16.179Z,21.05
2023-03-20T15:30:02.633Z,20.87
2023-03-20T15:32:49.973Z,20.67
2023-03-20T15:35:36.714Z,20.48
2023-03-20T15:38:23.262Z,20.32
2023-03-20T15:41:09.064Z,20.11
2023-03-20T15:44:23.216Z,19.96
2023-03-20T15:47:20.593Z,19.81
2023-03-20T15:50:12.848Z,19.67
2023-03-20T15:52:59.069Z,19.58
2023-03-20T15:55:50.839Z,19.48
2023-03-20T15:58:36.939Z,19.37
2023-03-20T16:01:25.222Z,19.30
2023-03-20T16:04:15.301Z,19.17
2023-03-20T16:07:01.706Z,19.09
2023-03-20T16:09:49.696Z,19.03
2023-03-20T16:12:35.689Z,18.96
2023-03-20T16:15:25.595Z,18.86
2023-03-20T16:18:15.072Z,18.76
2023-03-20T16:21:05.646Z,18.74
2023-03-20T16:23:54.168Z,18.68
2023-03-20T16:26:44.592Z,18.63
2023-03-20T16:29:30.971Z,18.58
2023-03-20T16:32:31.239Z,18.51
2023-03-20T16:35:20.447Z,18.46
2023-03-20T16:38:29.539Z,18.36
2023-03-20T16:41:15.715Z,18.30
2023-03-20T16:44:12.030Z,18.19
2023-03-20T16:47:18.344Z,18.16
2023-03-20T16:50:37.778Z,18.06
2023-03-20T16:53:24.939Z,18.00
2023-03-20T16:56:16.553Z,17.95
2023-03-20T16:59:10.351Z,17.88
2023-03-20T17:01:59.920Z,17.82
2023-03-20T17:04:48.046Z,17.78
2023-03-20T17:07:34.370Z,17.72
2023-03-20T17:10:21.829Z,17.67
2023-03-20T17:13:08.765Z,17.59
2023-03-20T17:15:55.008Z,17.54
2023-03-20T17:18:40.961Z,17.44
2023-03-20T17:21:27.457Z,17.40
2023-03-20T17:24:14.993Z,17.30
2023-03-20T17:27:01.135Z,17.28
2023-03-20T17:29:49.296Z,17.25
2023-03-20T17:32:35.462Z,17.21
2023-03-20T17:35:21.480Z,17.17
2023-03-20T17:38:12.352Z,17.13
2023-03-20T17:40:58.184Z,17.07
2023-03-20T17:43:45.222Z,17.05
2023-03-20T17:46:33.330Z,17.04
2023-03-20T17:49:26.973Z,17.00
2023-03-20T17:52:17.899Z,16.97
2023-03-20T17:55:03.844Z,16.92
2023-03-20T17:57:49.843Z,16.91
2023-03-20T18:00:36.454Z,16.88
2023-03-20T18:03:22.511Z,16.85
2023-03-20T18:06:17.736Z,16.79
2023-03-20T18:09:04.526Z,16.72
2023-03-20T18:11:50.684Z,16.67
2023-03-20T18:14:36.648Z,16.61
2023-03-20T18:17:22.326Z,16.57
2023-03-20T18:20:22.656Z,16.49
2023-03-20T18:23:09.161Z,16.44
2023-03-20T18:25:55.190Z,16.38
2023-03-20T18:28:40.905Z,16.35
2023-03-20T18:31:26.994Z,16.32
2023-03-20T18:34:12.590Z,16.28
2023-03-20T18:36:58.612Z,16.26
2023-03-20T18:39:44.810Z,16.25
2023-03-20T18:42:31.144Z,16.18
2023-03-20T18:45:17.305Z,16.16
2023-03-20T18:48:03.970Z,16.12
2023-03-20T18:50:51.116Z,16.07
2023-03-20T18:53:37.148Z,16.02
2023-03-20T18:56:25.484Z,15.92
2023-03-20T18:59:13.033Z,15.84
2023-03-20T19:01:58.818Z,15.76
2023-03-20T19:04:44.733Z,15.69
2023-03-20T19:07:30.580Z,15.61
2023-03-20T19:10:36.689Z,15.59
2023-03-20T19:13:22.832Z,15.57
2023-03-20T19:16:19.336Z,15.53
2023-03-20T19:19:07.746Z,15.53
2023-03-20T19:21:56.118Z,15.51
2023-03-20T19:24:42.705Z,15.49
2023-03-20T19:27:28.526Z,15.45
2023-03-20T19:30:25.513Z,15.42
2023-03-20T19:33:11.386Z,15.36
2023-03-20T19:36:04.843Z,15.28
2023-03-20T19:38:51.395Z,15.21
2023-03-20T19:41:37.987Z,15.07
2023-03-20T19:44:24.083Z,15.01
2023-03-20T19:47:10.404Z,14.96
2023-03-20T19:49:56.230Z,14.88
2023-03-20T19:52:41.856Z,14.85
2023-03-20T19:55:28.893Z,14.77
2023-03-20T19:58:15.005Z,14.71
2023-03-20T20:01:00.890Z,14.73
2023-03-20T20:03:47.058Z,14.73
2023-03-20T20:06:33.335Z,14.65
2023-03-20T20:09:19.451Z,14.61
2023-03-20T20:12:05.757Z,14.55
2023-03-20T20:14:52.127Z,14.42
2023-03-20T20:17:37.867Z,14.40
2023-03-20T20:20:25.236Z,14.31
2023-03-20T20:23:15.724Z,14.27
2023-03-20T20:26:04.954Z,14.24
2023-03-20T20:28:51.046Z,14.09
2023-03-20T20:31:36.966Z,14.04
2023-03-20T20:35:22.446Z,13.97
2023-03-20T20:40:35.748Z,13.85
2023-03-20T20:43:43.928Z,13.77
2023-03-20T20:46:28.212Z,13.74
2023-03-20T20:49:19.403Z,13.68
2023-03-20T20:52:06.466Z,13.60
2023-03-20T20:54:52.395Z,13.55
2023-03-20T20:57:38.232Z,13.48
2023-03-20T21:00:37.207Z,13.46
2023-03-20T21:03:29.062Z,13.39
2023-03-20T21:06:14.934Z,13.27
2023-03-20T21:09:01.036Z,13.24
2023-03-20T21:11:47.104Z,13.12
2023-03-20T21:14:32.952Z,13.11
2023-03-20T21:17:20.458Z,13.07
2023-03-20T21:20:13.213Z,12.99
2023-03-20T21:23:00.773Z,12.96
2023-03-20T21:25:47.980Z,12.86
2023-03-20T21:28:36.158Z,12.82
2023-03-20T21:31:28.071Z,12.74
2023-03-20T21:34:16.541Z,12.67
2023-03-20T21:37:56.146Z,12.60
2023-03-20T21:40:09.945Z,12.54
2023-03-20T21:42:57.886Z,12.46
2023-03-20T21:46:37.451Z,12.48
2023-03-20T21:55:52.321Z,12.37
2023-03-20T21:58:51.756Z,12.30
2023-03-20T22:14:34.028Z,11.84
2023-03-20T22:27:01.537Z,11.41
2023-03-20T22:30:00.636Z,11.35
2023-03-20T22:33:22.407Z,11.35
2023-03-20T22:39:11.693Z,11.36
2023-03-20T22:45:00.590Z,11.31
2023-03-20T22:47:47.656Z,11.28
2023-03-20T22:50:33.338Z,11.27
2023-03-20T22:53:19.250Z,11.23
2023-03-20T22:56:06.913Z,11.18
2023-03-20T22:58:53.848Z,11.16
2023-03-20T23:01:40.248Z,11.18
2023-03-20T23:04:27.448Z,11.11
2023-03-20T23:07:14.491Z,11.19
2023-03-20T23:10:00.910Z,11.22
2023-03-20T23:12:46.922Z,11.23
2023-03-20T23:15:32.689Z,11.21
2023-03-20T23:18:18.410Z,11.23
2023-03-20T23:21:05.035Z,11.23
2023-03-20T23:23:50.818Z,11.22
2023-03-20T23:26:36.640Z,11.23
2023-03-20T23:29:22.317Z,11.25
2023-03-20T23:32:08.086Z,11.26
2023-03-20T23:34:53.681Z,11.26
2023-03-20T23:37:39.425Z,11.23
2023-03-20T23:40:25.602Z,11.12
2023-03-20T23:43:11.378Z,11.13
2023-03-20T23:45:58.584Z,11.07
2023-03-20T23:48:45.727Z,11.07
2023-03-20T23:51:31.408Z,11.04
2023-03-20T23:54:17.176Z,11.09
2023-03-20T23:57:02.870Z,11.10
2023-03-20T23:59:48.702Z,11.14
